createdAt,value
2022-12-04T00:01:23.319Z,47.40
2022-12-04T00:03:53.264Z,47.53
2022-12-04T00:06:20.859Z,47.46
2022-12-04T00:08:48.476Z,47.54
2022-12-04T00:11:17.011Z,47.58
2022-12-04T00:13:46.001Z,47.35
2022-12-04T00:16:15.158Z,47.62
2022-12-04T00:18:42.630Z,47.60
2022-12-04T00:21:10.909Z,47.59
2022-12-04T00:23:38.570Z,47.52
2022-12-04T00:26:07.101Z,47.61
2022-12-04T00:28:34.846Z,47.57
2022-12-04T00:31:06.112Z,47.51
2022-12-04T00:33:33.591Z,47.55
2022-12-04T00:36:01.655Z,47.50
2022-12-04T00:38:29.153Z,47.52
2022-12-04T00:40:56.653Z,47.54
2022-12-04T00:43:24.188Z,47.56
2022-12-04T00:45:51.758Z,47.61
2022-12-04T00:48:20.617Z,47.58
2022-12-04T00:50:48.096Z,47.61
2022-12-04T00:53:15.531Z,47.55
2022-12-04T00:55:43.131Z,47.52
2022-12-04T00:58:10.681Z,47.64
2022-12-04T01:00:38.295Z,47.64
2022-12-04T01:03:07.508Z,47.80
2022-12-04T01:05:40.468Z,47.65
2022-12-04T01:08:08.032Z,47.65
2022-12-04T01:10:35.629Z,47.62
2022-12-04T01:13:03.083Z,47.82
2022-12-04T01:15:30.546Z,47.62
2022-12-04T01:17:58.029Z,47.66
2022-12-04T01:20:25.476Z,47.66
2022-12-04T01:22:54.264Z,47.58
2022-12-04T01:25:21.717Z,47.69
2022-12-04T01:27:49.171Z,47.72
2022-12-04T01:30:16.855Z,47.70
2022-12-04T01:32:44.415Z,47.62
2022-12-04T01:35:11.877Z,47.70
2022-12-04T01:37:39.337Z,47.70
2022-12-04T01:40:11.517Z,47.63
2022-12-04T01:42:39.004Z,47.75
2022-12-04T01:45:37.808Z,47.66
2022-12-04T01:48:10.180Z,47.57
2022-12-04T01:50:37.801Z,47.56
2022-12-04T01:53:05.235Z,47.59
2022-12-04T01:55:33.991Z,47.79
2022-12-04T01:58:01.553Z,47.84
2022-12-04T02:00:29.057Z,47.74
2022-12-04T02:02:56.603Z,47.73
2022-12-04T02:05:24.128Z,47.57
2022-12-04T02:07:53.299Z,47.76
2022-12-04T02:10:24.341Z,47.72
2022-12-04T02:12:56.879Z,47.63
2022-12-04T02:15:25.786Z,47.70
2022-12-04T02:17:55.163Z,47.73
2022-12-04T02:20:30.448Z,47.78
2022-12-04T02:23:23.185Z,47.74
2022-12-04T02:25:54.860Z,47.81
2022-12-04T02:28:24.244Z,47.70
2022-12-04T02:30:52.352Z,47.79
2022-12-04T02:33:21.312Z,47.56
2022-12-04T02:35:50.372Z,47.56
2022-12-04T02:38:22.182Z,47.66
2022-12-04T02:40:52.367Z,47.39
2022-12-04T02:43:19.942Z,47.66
2022-12-04T02:45:52.388Z,47.63
2022-12-04T02:48:20.576Z,47.81
2022-12-04T02:50:49.288Z,47.59
2022-12-04T02:53:18.539Z,47.69
2022-12-04T02:55:47.406Z,47.75
2022-12-04T02:58:17.023Z,47.74
2022-12-04T03:00:45.049Z,47.52
2022-12-04T03:03:15.359Z,47.86
2022-12-04T03:05:45.796Z,47.66
2022-12-04T03:08:15.437Z,47.79
2022-12-04T03:10:45.139Z,47.76
2022-12-04T03:13:14.363Z,47.81
2022-12-04T03:15:43.139Z,47.74
2022-12-04T03:18:12.989Z,47.80
2022-12-04T03:20:41.808Z,47.60
2022-12-04T03:23:10.990Z,47.75
2022-12-04T03:25:40.800Z,47.72
2022-12-04T03:28:09.431Z,47.90
2022-12-04T03:30:38.895Z,47.82
2022-12-04T03:33:08.474Z,47.86
2022-12-04T03:35:40.077Z,47.74
2022-12-04T03:38:11.337Z,47.80
2022-12-04T03:40:39.460Z,47.84
2022-12-04T03:43:15.970Z,48.04
2022-12-04T03:45:45.354Z,47.76
2022-12-04T03:48:22.516Z,47.88
2022-12-04T03:50:52.251Z,47.78
2022-12-04T03:53:22.920Z,47.94
2022-12-04T03:55:52.637Z,47.75
2022-12-04T03:58:23.230Z,47.82
2022-12-04T04:00:51.789Z,47.92
2022-12-04T04:03:20.833Z,47.82
2022-12-04T04:05:50.407Z,47.85
2022-12-04T04:08:30.851Z,47.73
2022-12-04T04:11:01.791Z,47.93
2022-12-04T04:13:51.419Z,47.82
2022-12-04T04:16:36.693Z,47.98
2022-12-04T04:19:21.967Z,47.90
2022-12-04T04:22:07.358Z,47.82
2022-12-04T04:24:39.214Z,47.75
2022-12-04T04:27:08.042Z,47.93
2022-12-04T04:29:35.509Z,48.01
2022-12-04T04:32:04.840Z,47.84
2022-12-04T04:34:34.963Z,47.88
2022-12-04T04:37:04.408Z,47.93
2022-12-04T04:39:33.792Z,47.82
2022-12-04T04:42:04.200Z,47.89
2022-12-04T04:44:34.557Z,47.93
2022-12-04T04:47:03.908Z,47.97
2022-12-04T04:49:31.889Z,47.71
2022-12-04T04:51:59.344Z,48.02
2022-12-04T04:54:26.806Z,47.97
2022-12-04T04:56:54.262Z,47.91
2022-12-04T05:01:45.898Z,47.98
2022-12-04T05:04:13.464Z,48.02
2022-12-04T05:06:40.949Z,47.90
2022-12-04T05:09:08.410Z,47.91
2022-12-04T05:11:35.929Z,47.96
2022-12-04T05:14:03.400Z,47.85
2022-12-04T05:16:30.949Z,47.94
2022-12-04T05:19:17.263Z,47.98
2022-12-04T05:21:44.751Z,48.04
2022-12-04T05:24:12.241Z,47.96
2022-12-04T05:26:39.711Z,48.10
2022-12-04T05:29:07.159Z,47.75
2022-12-04T05:31:34.680Z,47.95
2022-12-04T05:34:03.488Z,47.82
2022-12-04T05:36:30.946Z,47.88
2022-12-04T05:38:58.416Z,47.92
2022-12-04T05:41:25.844Z,47.95
2022-12-04T05:43:53.350Z,47.90
2022-12-04T05:46:20.870Z,48.01
2022-12-04T05:48:48.363Z,47.99
2022-12-04T05:51:17.120Z,47.97
2022-12-04T05:53:44.605Z,48.08
2022-12-04T05:56:12.051Z,47.83
2022-12-04T05:58:39.525Z,48.05
2022-12-04T06:01:11.481Z,48.02
2022-12-04T06:03:39.086Z,48.04
2022-12-04T06:06:17.522Z,48.06
2022-12-04T06:08:49.761Z,47.71
2022-12-04T06:11:18.704Z,48.03
2022-12-04T06:13:46.394Z,48.01
2022-12-04T06:16:15.322Z,47.89
2022-12-04T06:18:42.882Z,48.06
2022-12-04T06:21:10.485Z,47.96
2022-12-04T06:23:38.008Z,48.00
2022-12-04T06:26:07.644Z,48.07
2022-12-04T06:28:35.145Z,47.92
2022-12-04T06:31:03.269Z,48.14
2022-12-04T06:33:30.762Z,48.13
2022-12-04T06:36:01.366Z,48.08
2022-12-04T06:38:28.858Z,48.09
2022-12-04T06:40:56.388Z,47.98
2022-12-04T06:43:25.270Z,47.96
2022-12-04T06:46:00.637Z,48.12
2022-12-04T06:48:29.225Z,48.09
2022-12-04T06:51:00.385Z,47.99
2022-12-04T06:53:30.252Z,48.14
2022-12-04T06:55:58.680Z,48.12
2022-12-04T06:58:27.498Z,48.07
2022-12-04T07:00:55.095Z,48.08
2022-12-04T07:03:22.777Z,48.16
2022-12-04T07:05:50.302Z,48.11
2022-12-04T07:08:18.158Z,48.30
2022-12-04T07:10:45.672Z,48.08
2022-12-04T07:13:13.141Z,47.88
2022-12-04T07:15:41.930Z,48.15
2022-12-04T07:18:09.425Z,48.22
2022-12-04T07:20:37.006Z,48.19
2022-12-04T07:23:07.388Z,48.19
2022-12-04T07:25:35.033Z,48.26
2022-12-04T07:28:02.485Z,48.26
2022-12-04T07:30:30.030Z,48.26
2022-12-04T07:32:58.937Z,48.33
2022-12-04T07:35:26.366Z,48.48
2022-12-04T07:37:53.816Z,48.24
2022-12-04T07:40:21.264Z,48.26
2022-12-04T07:42:48.736Z,48.27
2022-12-04T07:45:16.347Z,48.30
2022-12-04T07:47:43.771Z,48.24
2022-12-04T07:50:12.565Z,48.30
2022-12-04T07:52:40.131Z,48.21
2022-12-04T07:55:08.141Z,48.24
2022-12-04T07:57:35.628Z,48.53
2022-12-04T08:00:03.184Z,48.27
2022-12-04T08:02:30.697Z,48.22
2022-12-04T08:04:58.214Z,48.26
2022-12-04T08:07:27.226Z,48.29
2022-12-04T08:09:54.925Z,48.38
2022-12-04T08:12:22.515Z,48.38
2022-12-04T08:14:50.250Z,48.34
2022-12-04T08:17:17.778Z,48.25
2022-12-04T08:19:45.291Z,48.39
2022-12-04T08:22:12.749Z,48.35
2022-12-04T08:24:41.600Z,48.38
2022-12-04T08:27:09.044Z,48.42
2022-12-04T08:29:36.501Z,48.33
2022-12-04T08:32:04.130Z,48.48
2022-12-04T08:34:31.593Z,48.41
2022-12-04T08:36:59.093Z,48.43
2022-12-04T08:39:26.875Z,48.41
2022-12-04T08:41:57.304Z,48.40
2022-12-04T08:44:25.113Z,48.28
2022-12-04T08:46:52.653Z,48.49
2022-12-04T08:49:20.170Z,48.55
2022-12-04T08:51:47.624Z,48.50
2022-12-04T08:54:15.841Z,48.45
2022-12-04T08:56:44.355Z,48.31
2022-12-04T08:59:13.597Z,48.19
2022-12-04T09:01:41.165Z,48.47
2022-12-04T09:04:08.749Z,48.46
2022-12-04T09:06:36.253Z,48.35
2022-12-04T09:09:04.034Z,48.55
2022-12-04T09:11:32.816Z,48.52
2022-12-04T09:14:00.461Z,48.34
2022-12-04T09:16:29.362Z,48.45
2022-12-04T09:18:57.386Z,48.67
2022-12-04T09:21:25.473Z,48.55
2022-12-04T09:23:52.942Z,48.45
2022-12-04T09:26:22.520Z,48.58
2022-12-04T09:28:50.131Z,48.44
2022-12-04T09:31:17.724Z,48.51
2022-12-04T09:33:46.581Z,48.53
2022-12-04T09:36:16.084Z,48.39
2022-12-04T09:38:44.411Z,48.46
2022-12-04T09:41:21.285Z,48.29
2022-12-04T09:43:50.181Z,48.62
2022-12-04T09:46:19.568Z,48.57
2022-12-04T09:48:49.021Z,48.44
2022-12-04T09:51:18.799Z,48.54
2022-12-04T09:53:47.936Z,48.56
2022-12-04T09:56:19.651Z,48.69
2022-12-04T09:58:48.552Z,48.69
2022-12-04T10:01:20.685Z,48.60
2022-12-04T10:03:49.799Z,48.72
2022-12-04T10:06:19.322Z,48.80
2022-12-04T10:08:47.280Z,48.77
2022-12-04T10:11:18.049Z,48.63
2022-12-04T10:13:56.972Z,48.60
2022-12-04T10:16:25.456Z,48.72
2022-12-04T10:18:57.852Z,48.50
2022-12-04T10:21:33.819Z,48.75
2022-12-04T10:24:09.155Z,48.45
2022-12-04T10:26:38.309Z,48.68
2022-12-04T10:29:08.418Z,48.78
2022-12-04T10:31:36.622Z,48.68
2022-12-04T10:34:07.021Z,48.69
2022-12-04T10:36:35.310Z,48.76
2022-12-04T10:39:04.521Z,48.62
2022-12-04T10:41:35.553Z,48.66
2022-12-04T10:44:03.027Z,48.88
2022-12-04T10:46:31.399Z,48.79
2022-12-04T10:49:00.387Z,48.76
2022-12-04T10:51:30.896Z,48.81
2022-12-04T10:53:58.529Z,48.81
2022-12-04T10:56:26.644Z,48.82
2022-12-04T10:58:58.576Z,48.80
2022-12-04T11:01:26.229Z,48.82
2022-12-04T11:03:59.236Z,48.82
2022-12-04T11:06:26.972Z,48.69
2022-12-04T11:08:55.882Z,48.70
2022-12-04T11:11:27.472Z,48.85
2022-12-04T11:14:05.125Z,48.81
2022-12-04T11:16:37.882Z,48.76
2022-12-04T11:19:19.815Z,48.87
2022-12-04T11:21:47.293Z,48.82
2022-12-04T11:24:19.866Z,48.86
2022-12-04T11:26:47.483Z,48.90
2022-12-04T11:29:15.154Z,48.89
2022-12-04T11:31:42.633Z,48.94
2022-12-04T11:34:10.180Z,48.77
2022-12-04T11:36:40.355Z,48.79
2022-12-04T11:39:08.249Z,48.89
2022-12-04T11:41:37.049Z,48.86
2022-12-04T11:44:06.351Z,48.75
2022-12-04T11:46:34.348Z,48.86
2022-12-04T11:49:03.222Z,48.88
2022-12-04T11:51:37.952Z,48.87
2022-12-04T11:54:08.177Z,48.97
2022-12-04T11:56:37.108Z,48.86
2022-12-04T11:59:30.509Z,49.01
2022-12-04T12:02:01.256Z,48.92
2022-12-04T12:04:44.016Z,48.96
2022-12-04T12:07:17.697Z,48.84
2022-12-04T12:09:48.227Z,48.95
2022-12-04T12:12:18.984Z,49.02
2022-12-04T12:14:49.743Z,48.88
2022-12-04T12:17:21.666Z,48.99
2022-12-04T12:19:57.023Z,48.88
2022-12-04T12:22:34.364Z,49.00
2022-12-04T12:25:04.335Z,48.94
2022-12-04T12:27:43.689Z,49.03
2022-12-04T12:30:15.553Z,48.98
2022-12-04T12:32:54.278Z,48.99
2022-12-04T12:35:23.356Z,48.99
2022-12-04T12:37:52.016Z,48.99
2022-12-04T12:40:26.733Z,48.98
2022-12-04T12:42:58.673Z,48.88
2022-12-04T12:45:29.620Z,48.88
2022-12-04T12:50:25.672Z,49.07
2022-12-04T12:52:55.370Z,49.06
2022-12-04T12:55:24.136Z,49.11
2022-12-04T12:57:57.319Z,48.87
2022-12-04T13:00:24.761Z,49.04
2022-12-04T13:02:54.757Z,48.96
2022-12-04T13:05:25.575Z,49.09
2022-12-04T13:07:58.209Z,48.86
2022-12-04T13:10:26.609Z,49.08
2022-12-04T13:12:55.688Z,48.95
2022-12-04T13:15:25.754Z,49.03
2022-12-04T13:17:54.072Z,49.09
2022-12-04T13:20:23.080Z,48.93
2022-12-04T13:22:58.129Z,48.88
2022-12-04T13:25:35.869Z,48.99
2022-12-04T13:28:08.090Z,49.09
2022-12-04T13:30:43.297Z,48.99
2022-12-04T13:33:37.856Z,49.17
2022-12-04T13:36:13.219Z,49.03
2022-12-04T13:38:45.005Z,49.16
2022-12-04T13:41:13.456Z,49.16
2022-12-04T13:43:46.469Z,49.02
2022-12-04T13:46:26.587Z,49.11
2022-12-04T13:48:53.911Z,49.03
2022-12-04T13:51:37.064Z,49.10
2022-12-04T13:54:24.891Z,49.03
2022-12-04T13:56:53.169Z,49.16
2022-12-04T13:59:37.873Z,49.20
2022-12-04T14:02:22.940Z,49.12
2022-12-04T14:04:54.978Z,49.05
2022-12-04T14:07:28.617Z,49.11
2022-12-04T14:09:56.973Z,49.02
2022-12-04T14:12:27.051Z,49.02
2022-12-04T14:14:55.568Z,49.16
2022-12-04T14:17:26.406Z,49.11
2022-12-04T14:19:55.064Z,49.17
2022-12-04T14:22:30.993Z,49.11
2022-12-04T14:25:09.623Z,49.16
2022-12-04T14:27:44.258Z,49.19
2022-12-04T14:30:19.615Z,49.24
2022-12-04T14:32:48.485Z,49.20
2022-12-04T14:35:16.135Z,49.31
2022-12-04T14:37:46.774Z,49.16
2022-12-04T14:40:18.429Z,49.09
2022-12-04T14:42:48.406Z,49.16
2022-12-04T14:45:25.141Z,48.91
2022-12-04T14:48:11.986Z,49.14
2022-12-04T14:50:42.512Z,49.01
2022-12-04T14:53:14.156Z,49.18
2022-12-04T14:55:45.158Z,49.22
2022-12-04T14:58:29.082Z,49.13
2022-12-04T15:00:57.348Z,49.10
2022-12-04T15:03:26.242Z,49.16
2022-12-04T15:05:53.749Z,49.18
2022-12-04T15:08:21.607Z,49.08
2022-12-04T15:11:07.558Z,49.23
2022-12-04T15:13:37.213Z,49.21
2022-12-04T15:16:09.583Z,49.10
2022-12-04T15:18:39.842Z,49.24
2022-12-04T15:21:07.846Z,49.33
2022-12-04T15:23:36.626Z,49.32
2022-12-04T15:26:05.481Z,49.17
2022-12-04T15:28:35.055Z,49.24
2022-12-04T15:31:03.601Z,49.14
2022-12-04T15:33:33.854Z,49.33
2022-12-04T15:36:03.575Z,49.42
2022-12-04T15:38:31.126Z,49.42
2022-12-04T15:40:59.896Z,49.39
2022-12-04T15:43:29.773Z,49.31
2022-12-04T15:45:57.419Z,49.24
2022-12-04T15:48:26.369Z,49.23
2022-12-04T15:51:02.477Z,49.35
2022-12-04T15:53:31.254Z,49.15
2022-12-04T15:56:00.638Z,49.38
2022-12-04T15:58:28.938Z,49.37
2022-12-04T16:00:57.279Z,49.24
2022-12-04T16:03:26.494Z,49.34
2022-12-04T16:06:08.105Z,49.34
2022-12-04T16:08:37.042Z,49.34
2022-12-04T16:11:05.706Z,49.42
2022-12-04T16:13:35.168Z,49.21
2022-12-04T16:16:05.450Z,49.47
2022-12-04T16:18:32.932Z,49.25
2022-12-04T16:21:00.409Z,49.20
2022-12-04T16:23:29.173Z,49.36
2022-12-04T16:25:56.702Z,49.38
2022-12-04T16:28:24.182Z,49.41
2022-12-04T16:30:52.435Z,49.31
2022-12-04T16:33:19.984Z,49.44
2022-12-04T16:35:47.454Z,49.30
2022-12-04T16:38:16.579Z,49.43
2022-12-04T16:40:46.044Z,49.27
2022-12-04T16:43:14.290Z,49.46
2022-12-04T16:45:44.841Z,49.41
2022-12-04T16:48:12.344Z,49.36
2022-12-04T16:50:39.881Z,49.21
2022-12-04T16:53:07.355Z,49.36
2022-12-04T16:55:35.908Z,49.38
2022-12-04T16:58:04.726Z,49.36
2022-12-04T17:00:32.354Z,49.47
2022-12-04T17:02:59.838Z,49.28
2022-12-04T17:05:28.509Z,49.54
2022-12-04T17:07:56.052Z,49.45
2022-12-04T17:10:24.569Z,49.34
2022-12-04T17:12:52.750Z,49.38
2022-12-04T17:15:21.564Z,49.50
2022-12-04T17:17:49.007Z,49.34
2022-12-04T17:20:17.330Z,49.30
2022-12-04T17:22:44.914Z,49.36
2022-12-04T17:25:12.505Z,49.40
2022-12-04T17:27:40.004Z,49.39
2022-12-04T17:30:08.698Z,49.55
2022-12-04T17:32:37.548Z,49.45
2022-12-04T17:35:05.904Z,49.40
2022-12-04T17:37:33.525Z,49.23
2022-12-04T17:40:01.015Z,49.56
2022-12-04T17:42:28.518Z,49.38
2022-12-04T17:44:56.124Z,49.39
2022-12-04T17:47:23.704Z,49.54
2022-12-04T17:49:52.495Z,49.41
2022-12-04T17:52:22.286Z,49.49
2022-12-04T17:54:50.055Z,49.53
2022-12-04T17:57:17.780Z,49.57
2022-12-04T17:59:45.331Z,49.29
2022-12-04T18:02:14.757Z,49.71
2022-12-04T18:04:42.261Z,49.24
2022-12-04T18:07:11.042Z,49.53
2022-12-04T18:09:38.539Z,49.58
2022-12-04T18:12:06.345Z,49.68
2022-12-04T18:14:35.059Z,49.47
2022-12-04T18:17:02.696Z,49.41
2022-12-04T18:19:30.295Z,49.45
2022-12-04T18:21:57.893Z,49.17
2022-12-04T18:24:26.850Z,49.48
2022-12-04T18:26:54.427Z,49.50
2022-12-04T18:29:23.815Z,49.45
2022-12-04T18:31:51.904Z,49.47
2022-12-04T18:34:19.477Z,49.55
2022-12-04T18:36:46.930Z,49.46
2022-12-04T18:39:16.095Z,49.56
2022-12-04T18:41:44.965Z,49.47
2022-12-04T18:44:12.628Z,49.42
2022-12-04T18:46:40.196Z,49.54
2022-12-04T18:49:09.072Z,49.46
2022-12-04T18:51:39.289Z,49.60
2022-12-04T18:54:07.153Z,49.50
2022-12-04T18:56:35.703Z,49.60
2022-12-04T18:59:05.596Z,49.54
2022-12-04T19:01:33.165Z,49.51
2022-12-04T19:04:01.603Z,49.14
2022-12-04T19:06:30.399Z,49.52
2022-12-04T19:08:59.501Z,49.46
2022-12-04T19:11:26.970Z,49.61
2022-12-04T19:13:54.430Z,49.59
2022-12-04T19:16:23.238Z,49.56
2022-12-04T19:18:50.779Z,49.67
2022-12-04T19:21:19.001Z,49.61
2022-12-04T19:23:50.008Z,49.63
2022-12-04T19:26:17.829Z,49.49
2022-12-04T19:28:45.356Z,49.62
2022-12-04T19:31:16.454Z,49.52
2022-12-04T19:33:45.300Z,49.65
2022-12-04T19:36:13.305Z,49.52
2022-12-04T19:38:40.826Z,49.56
2022-12-04T19:41:10.001Z,49.66
2022-12-04T19:43:37.729Z,49.72
2022-12-04T19:46:05.433Z,49.63
2022-12-04T19:48:32.944Z,49.58
2022-12-04T19:51:05.640Z,49.55
2022-12-04T19:53:37.742Z,49.72
2022-12-04T19:56:13.068Z,49.63
2022-12-04T19:58:40.532Z,49.59
2022-12-04T20:01:09.103Z,49.37
2022-12-04T20:03:36.935Z,49.57
2022-12-04T20:06:06.424Z,49.68
2022-12-04T20:08:33.898Z,49.55
2022-12-04T20:11:03.344Z,49.67
2022-12-04T20:13:30.884Z,49.51
2022-12-04T20:16:02.036Z,49.64
2022-12-04T20:18:29.553Z,49.66
2022-12-04T20:20:57.305Z,49.73
2022-12-04T20:23:26.156Z,49.51
2022-12-04T20:25:53.596Z,49.68
2022-12-04T20:28:21.082Z,49.62
2022-12-04T20:30:49.677Z,49.51
2022-12-04T20:33:17.255Z,49.63
2022-12-04T20:35:44.758Z,49.70
2022-12-04T20:38:13.337Z,49.66
2022-12-04T20:40:42.125Z,49.63
2022-12-04T20:43:09.588Z,49.75
2022-12-04T20:45:37.048Z,49.60
2022-12-04T20:48:04.660Z,49.63
2022-12-04T20:50:32.098Z,49.73
2022-12-04T20:52:59.541Z,49.72
2022-12-04T20:55:26.982Z,49.62
2022-12-04T20:57:57.245Z,49.60
2022-12-04T21:00:24.724Z,49.81
2022-12-04T21:02:52.525Z,49.79
2022-12-04T21:05:20.082Z,49.68
2022-12-04T21:07:47.581Z,49.67
2022-12-04T21:10:15.047Z,49.65
2022-12-04T21:13:00.514Z,49.82
2022-12-04T21:15:46.937Z,49.83
2022-12-04T21:18:14.429Z,49.55
2022-12-04T21:20:41.883Z,49.78
2022-12-04T21:23:09.362Z,49.74
2022-12-04T21:25:37.205Z,49.35
2022-12-04T21:28:04.700Z,49.78
2022-12-04T21:30:33.732Z,49.79
2022-12-04T21:33:01.199Z,49.75
2022-12-04T21:35:28.959Z,49.86
2022-12-04T21:37:56.621Z,49.85
2022-12-04T21:40:24.068Z,49.83
2022-12-04T21:42:51.552Z,49.78
2022-12-04T21:45:19.006Z,49.79
2022-12-04T21:47:47.809Z,49.85
2022-12-04T21:50:15.255Z,49.75
2022-12-04T21:52:42.725Z,49.74
2022-12-04T21:55:10.539Z,49.93
2022-12-04T21:57:38.017Z,49.78
2022-12-04T22:00:06.743Z,49.79
2022-12-04T22:02:36.046Z,49.87
2022-12-04T22:05:05.717Z,49.76
2022-12-04T22:07:33.478Z,49.88
2022-12-04T22:10:05.517Z,49.89
2022-12-04T22:12:51.873Z,49.89
2022-12-04T22:15:19.466Z,49.90
2022-12-04T22:17:46.946Z,49.78
2022-12-04T22:20:15.885Z,49.70
2022-12-04T22:22:43.336Z,49.75
2022-12-04T22:25:10.920Z,49.86
2022-12-04T22:27:38.411Z,49.96
2022-12-04T22:30:07.559Z,49.81
2022-12-04T22:32:35.306Z,49.87
2022-12-04T22:35:02.736Z,49.98
2022-12-04T22:37:31.612Z,49.94
2022-12-04T22:39:59.187Z,49.98
2022-12-04T22:42:26.870Z,50.00
2022-12-04T22:44:54.311Z,49.91
2022-12-04T22:47:21.781Z,49.83
2022-12-04T22:49:49.240Z,50.02
2022-12-04T22:52:16.709Z,49.97
2022-12-04T22:54:45.519Z,49.90
2022-12-04T22:57:12.990Z,49.92
2022-12-04T22:59:40.434Z,50.02
2022-12-04T23:02:07.906Z,49.93
2022-12-04T23:04:35.380Z,49.94
2022-12-04T23:07:02.897Z,50.02
2022-12-04T23:09:31.076Z,50.02
2022-12-04T23:11:59.897Z,50.00
2022-12-04T23:14:28.802Z,50.05
2022-12-04T23:16:56.443Z,50.00
2022-12-04T23:19:24.195Z,49.98
2022-12-04T23:21:56.960Z,49.94
2022-12-04T23:24:24.820Z,49.97
2022-12-04T23:26:52.253Z,50.08
2022-12-04T23:29:51.547Z,50.07
2022-12-04T23:32:08.539Z,50.06
2022-12-04T23:34:35.980Z,49.96
2022-12-04T23:37:03.442Z,49.88
2022-12-04T23:39:30.911Z,49.96
2022-12-04T23:41:58.349Z,50.04
2022-12-04T23:44:27.139Z,50.03
2022-12-04T23:46:54.644Z,50.09
2022-12-04T23:49:22.141Z,50.03
2022-12-04T23:51:49.701Z,49.96
2022-12-04T23:54:17.155Z,50.08
2022-12-04T23:56:44.616Z,50.09
2022-12-04T23:59:12.060Z,50.00
